Time;durP1;ratioP1;P1;durP2;ratioP2;P2;SDS_P1;SDS_P2;PMS_P1;PMS_P2;Temp;Humidity;BMP_temperature;BMP_pressure;BME280_temperature;BME280_humidity;BME280_pressure;Samples;Min_cycle;Max_cycle;Signal;HPM_P1;HPM_P2
2022/05/05 00:01:14;;;;;;;;;;;12.20;43.60;;;;;;5073549;28;20006;-88
2022/05/05 00:03:40;;;;;;;;;;;12.20;43.70;;;;;;5073745;28;19964;-87
2022/05/05 00:06:05;;;;;;;;;;;12.10;43.70;;;;;;5071070;28;19920;-87
2022/05/05 00:08:31;;;;;;;;;;;12.10;43.80;;;;;;5070081;28;19971;-87
2022/05/05 00:16:27;;;;;;;;;;;11.90;44.00;;;;;;5072564;28;19935;-87
2022/05/05 00:18:52;;;;;;;;;;;11.80;44.30;;;;;;5066266;28;20363;-87
2022/05/05 00:21:18;;;;;;;;;;;11.80;44.20;;;;;;5072944;28;19925;-87
2022/05/05 00:23:43;;;;;;;;;;;11.80;44.30;;;;;;5074037;28;20356;-87
2022/05/05 00:26:09;;;;;;;;;;;11.70;44.30;;;;;;5059821;28;20299;-87
2022/05/05 00:28:34;;;;;;;;;;;11.70;44.30;;;;;;5073525;28;19970;-88
2022/05/05 00:30:59;;;;;;;;;;;11.70;44.40;;;;;;5072886;28;19920;-87
2022/05/05 00:33:25;;;;;;;;;;;11.70;44.50;;;;;;5061358;28;19924;-87
2022/05/05 00:35:50;;;;;;;;;;;11.60;44.50;;;;;;5071424;28;19931;-87
2022/05/05 00:38:17;;;;;;;;;;;11.60;44.50;;;;;;5056147;28;19913;-87
2022/05/05 00:40:43;;;;;;;;;;;11.50;44.50;;;;;;5055417;28;20500;-86
2022/05/05 00:43:09;;;;;;;;;;;11.50;44.60;;;;;;5071748;28;19995;-87
2022/05/05 00:45:34;;;;;;;;;;;11.40;45.30;;;;;;5071881;28;20003;-86
2022/05/05 00:48:04;;;;;;;;;;;11.50;45.80;;;;;;5057325;28;19965;-87
2022/05/05 00:50:31;;;;;;;;;;;11.50;45.40;;;;;;5058591;28;19916;-87
2022/05/05 00:52:57;;;;;;;;;;;11.40;45.30;;;;;;5060045;28;20386;-87
2022/05/05 00:55:22;;;;;;;;;;;11.40;45.20;;;;;;5054288;28;19921;-87
2022/05/05 00:57:47;;;;;;;;;;;11.40;45.10;;;;;;5071990;28;20311;-87
2022/05/05 01:00:13;;;;;;;;;;;11.30;45.10;;;;;;5059375;28;19975;-87
2022/05/05 01:02:39;;;;;;;;;;;11.40;45.20;;;;;;5051075;28;19920;-87
2022/05/05 01:05:04;;;;;;;;;;;11.30;45.20;;;;;;5066806;28;19959;-87
2022/05/05 01:07:30;;;;;;;;;;;11.30;45.40;;;;;;5060525;28;20248;-87
2022/05/05 01:09:56;;;;;;;;;;;11.30;45.40;;;;;;5071347;28;19920;-86
2022/05/05 01:12:23;;;;;;;;;;;11.30;45.40;;;;;;5070581;28;20811;-87
2022/05/05 01:14:49;;;;;;;;;;;11.40;45.50;;;;;;5062290;28;19924;-88
2022/05/05 01:17:14;;;;;;;;;;;11.40;45.50;;;;;;5052611;28;19913;-88
2022/05/05 01:19:40;;;;;;;;;;;11.50;45.50;;;;;;5056030;28;19955;-87
2022/05/05 01:22:06;;;;;;;;;;;11.50;45.50;;;;;;5055673;28;19916;-89
2022/05/05 01:30:00;;;;;;;;;;;11.80;45.70;;;;;;5073022;28;20288;-87
2022/05/05 01:32:32;;;;;;;;;;;11.90;45.90;;;;;;5071994;28;19920;-86
2022/05/05 01:34:58;;;;;;;;;;;12.00;45.80;;;;;;5065710;28;19967;-87
2022/05/05 01:37:23;;;;;;;;;;;12.10;45.70;;;;;;5050165;28;20005;-86
2022/05/05 01:39:49;;;;;;;;;;;12.20;45.70;;;;;;5072175;28;19917;-87
2022/05/05 01:42:14;;;;;;;;;;;12.20;45.70;;;;;;5072764;28;20288;-87
2022/05/05 01:44:40;;;;;;;;;;;12.30;45.70;;;;;;5074220;28;20363;-87
2022/05/05 01:47:05;;;;;;;;;;;12.40;45.60;;;;;;5072197;28;20003;-87
2022/05/05 01:49:31;;;;;;;;;;;12.50;45.60;;;;;;5071773;28;20367;-86
2022/05/05 01:51:56;;;;;;;;;;;12.50;45.70;;;;;;5054794;28;19912;-87
2022/05/05 01:54:21;;;;;;;;;;;12.60;45.70;;;;;;5060801;28;19960;-87
2022/05/05 01:56:47;;;;;;;;;;;12.70;45.70;;;;;;5059984;28;19991;-87
2022/05/05 01:59:12;;;;;;;;;;;12.70;46.30;;;;;;5070800;28;20331;-87
2022/05/05 02:01:38;;;;;;;;;;;12.80;45.90;;;;;;5053785;28;20356;-87
2022/05/05 02:04:03;;;;;;;;;;;12.80;45.80;;;;;;5070626;28;19978;-87
2022/05/05 02:06:29;;;;;;;;;;;12.80;45.70;;;;;;5071622;28;19960;-87
2022/05/05 02:08:57;;;;;;;;;;;12.80;45.60;;;;;;5054534;28;19917;-87
2022/05/05 02:11:22;;;;;;;;;;;12.90;45.60;;;;;;5071568;28;20050;-87
2022/05/05 02:13:48;;;;;;;;;;;12.90;45.60;;;;;;5061104;28;20073;-87
2022/05/05 02:16:13;;;;;;;;;;;13.00;45.60;;;;;;5065822;28;19913;-87
2022/05/05 02:18:38;;;;;;;;;;;13.00;45.60;;;;;;5054598;28;20118;-87
2022/05/05 02:21:04;;;;;;;;;;;13.00;45.60;;;;;;5070841;28;19920;-87
2022/05/05 02:23:29;;;;;;;;;;;13.10;45.50;;;;;;5059349;28;19924;-87
2022/05/05 02:25:55;;;;;;;;;;;13.10;45.50;;;;;;5056595;28;19921;-87
2022/05/05 02:28:20;;;;;;;;;;;13.10;45.50;;;;;;5052398;28;19924;-87
2022/05/05 02:30:45;;;;;;;;;;;13.20;45.50;;;;;;5052099;28;20288;-87
2022/05/05 02:33:11;;;;;;;;;;;13.20;45.40;;;;;;5078933;28;20364;-87
2022/05/05 02:35:36;;;;;;;;;;;13.20;45.50;;;;;;5077063;28;20299;-87
2022/05/05 02:40:46;;;;;;;;;;;13.30;45.60;;;;;;5075593;28;20272;-86
2022/05/05 02:43:12;;;;;;;;;;;13.30;45.60;;;;;;5062974;28;19917;-88
2022/05/05 02:45:37;;;;;;;;;;;13.30;45.70;;;;;;5069867;28;19913;-87
2022/05/05 02:48:04;;;;;;;;;;;13.30;45.70;;;;;;5069960;28;19961;-87
2022/05/05 02:50:30;;;;;;;;;;;13.30;45.60;;;;;;5070608;28;19912;-87
2022/05/05 02:52:55;;;;;;;;;;;13.30;45.70;;;;;;5072519;28;20579;-87
2022/05/05 02:55:21;;;;;;;;;;;13.30;45.60;;;;;;5063449;28;19920;-87
2022/05/05 02:57:46;;;;;;;;;;;13.30;45.60;;;;;;5061247;28;19920;-87
2022/05/05 03:00:12;;;;;;;;;;;13.40;45.60;;;;;;5058865;28;19958;-87
2022/05/05 03:02:39;;;;;;;;;;;13.40;45.70;;;;;;5082935;28;19917;-88
2022/05/05 03:05:04;;;;;;;;;;;13.40;45.60;;;;;;5050574;28;20380;-86
2022/05/05 03:07:30;;;;;;;;;;;13.50;45.60;;;;;;5056806;28;19923;-87
2022/05/05 03:09:55;;;;;;;;;;;13.50;45.80;;;;;;5075556;28;19922;-87
2022/05/05 03:12:21;;;;;;;;;;;13.50;45.70;;;;;;5073524;28;19924;-87
2022/05/05 03:14:47;;;;;;;;;;;13.60;45.70;;;;;;5064733;28;19966;-87
2022/05/05 03:17:13;;;;;;;;;;;13.60;45.70;;;;;;5062965;28;19916;-87
2022/05/05 03:19:39;;;;;;;;;;;13.60;45.70;;;;;;5057009;28;19912;-87
2022/05/05 03:22:04;;;;;;;;;;;13.70;45.70;;;;;;5066243;28;19977;-87
2022/05/05 03:24:30;;;;;;;;;;;13.70;45.70;;;;;;5074304;28;19912;-86
2022/05/05 03:26:56;;;;;;;;;;;13.70;45.90;;;;;;5057165;28;19940;-87
2022/05/05 03:29:22;;;;;;;;;;;13.80;45.80;;;;;;5073555;28;20002;-87
2022/05/05 03:31:48;;;;;;;;;;;13.80;45.80;;;;;;5075311;28;19916;-87
2022/05/05 03:34:13;;;;;;;;;;;13.80;45.80;;;;;;5073621;28;19916;-87
2022/05/05 03:36:38;;;;;;;;;;;13.80;45.70;;;;;;5067946;28;19923;-87
2022/05/05 03:39:04;;;;;;;;;;;13.80;46.20;;;;;;5059574;28;19912;-87
2022/05/05 03:41:29;;;;;;;;;;;13.80;46.90;;;;;;5071953;28;19917;-87
2022/05/05 03:43:55;;;;;;;;;;;13.80;46.80;;;;;;5070759;28;19924;-86
2022/05/05 03:46:24;;;;;;;;;;;13.80;46.90;;;;;;5075215;28;19924;-87
2022/05/05 03:48:50;;;;;;;;;;;13.80;47.00;;;;;;5073430;28;19970;-87
2022/05/05 03:51:16;;;;;;;;;;;13.80;46.90;;;;;;5058620;28;19916;-87
2022/05/05 03:53:41;;;;;;;;;;;13.80;46.80;;;;;;5073052;28;19931;-87
2022/05/05 03:56:07;;;;;;;;;;;13.80;46.70;;;;;;5057676;28;20053;-87
2022/05/05 03:58:32;;;;;;;;;;;13.80;46.60;;;;;;5075157;28;20284;-87
2022/05/05 04:00:58;;;;;;;;;;;13.90;46.70;;;;;;5056342;28;19920;-87
2022/05/05 04:03:33;;;;;;;;;;;14.00;46.70;;;;;;5056293;28;19932;-87
2022/05/05 04:05:58;;;;;;;;;;;14.00;46.70;;;;;;5076043;28;19919;-87
2022/05/05 04:08:24;;;;;;;;;;;14.10;46.70;;;;;;5075729;28;19916;-87
2022/05/05 04:10:50;;;;;;;;;;;14.10;46.80;;;;;;5057422;28;20272;-87
2022/05/05 04:13:16;;;;;;;;;;;14.10;46.80;;;;;;5057733;28;19964;-88
2022/05/05 04:15:41;;;;;;;;;;;14.10;46.80;;;;;;5075176;28;19913;-88
2022/05/05 04:18:07;;;;;;;;;;;14.20;46.90;;;;;;5057293;28;19920;-88
2022/05/05 04:20:33;;;;;;;;;;;14.20;46.80;;;;;;5057481;28;20249;-87
2022/05/05 04:22:58;;;;;;;;;;;14.30;46.70;;;;;;5074863;28;19923;-88
2022/05/05 04:25:24;;;;;;;;;;;14.30;46.60;;;;;;5075581;28;19920;-88
2022/05/05 04:27:50;;;;;;;;;;;14.30;46.50;;;;;;5075635;28;19917;-86
2022/05/05 04:30:16;;;;;;;;;;;14.30;46.50;;;;;;5076629;28;20356;-88
2022/05/05 04:32:42;;;;;;;;;;;14.30;46.50;;;;;;5058337;28;19924;-88
2022/05/05 04:35:08;;;;;;;;;;;14.40;46.40;;;;;;5058483;28;19923;-89
2022/05/05 04:37:34;;;;;;;;;;;14.40;46.40;;;;;;5076484;28;20007;-88
2022/05/05 04:39:59;;;;;;;;;;;14.50;46.40;;;;;;5056073;28;19920;-89
2022/05/05 04:42:27;;;;;;;;;;;14.60;46.40;;;;;;5058160;28;19925;-88
2022/05/05 04:44:53;;;;;;;;;;;14.60;46.60;;;;;;5075649;28;20402;-88
2022/05/05 04:47:19;;;;;;;;;;;14.70;46.70;;;;;;5057836;28;19917;-88
2022/05/05 04:49:44;;;;;;;;;;;14.70;46.80;;;;;;5058516;28;19974;-89
2022/05/05 04:52:10;;;;;;;;;;;14.70;46.90;;;;;;5071900;28;20016;-88
2022/05/05 04:54:35;;;;;;;;;;;14.80;46.70;;;;;;5075641;28;19963;-88
2022/05/05 04:57:01;;;;;;;;;;;14.80;46.80;;;;;;5067251;28;19921;-88
2022/05/05 04:59:26;;;;;;;;;;;14.90;46.90;;;;;;5069050;28;20364;-88
2022/05/05 05:01:52;;;;;;;;;;;14.90;46.90;;;;;;5074432;28;20058;-88
2022/05/05 05:04:17;;;;;;;;;;;15.00;47.00;;;;;;5053041;28;19917;-88
2022/05/05 05:06:43;;;;;;;;;;;15.10;47.00;;;;;;5052114;28;19924;-88
2022/05/05 05:09:08;;;;;;;;;;;15.10;47.00;;;;;;5057008;28;19912;-87
2022/05/05 05:11:34;;;;;;;;;;;15.20;46.80;;;;;;5075160;28;19923;-88
2022/05/05 05:13:59;;;;;;;;;;;15.30;46.80;;;;;;5075135;28;19970;-88
2022/05/05 05:16:25;;;;;;;;;;;15.40;46.80;;;;;;5058078;28;20299;-88
2022/05/05 05:18:53;;;;;;;;;;;15.50;46.70;;;;;;5075434;28;19923;-89
2022/05/05 05:21:19;;;;;;;;;;;15.60;46.70;;;;;;5075254;28;19959;-89
2022/05/05 05:23:44;;;;;;;;;;;15.70;46.60;;;;;;5075362;28;20332;-89
2022/05/05 05:26:10;;;;;;;;;;;15.80;46.50;;;;;;5075475;28;20003;-88
2022/05/05 05:28:35;;;;;;;;;;;15.90;46.30;;;;;;5075099;28;19923;-89
2022/05/05 05:31:01;;;;;;;;;;;16.00;46.30;;;;;;5058300;28;20003;-89
2022/05/05 05:33:26;;;;;;;;;;;16.10;46.20;;;;;;5057694;28;19916;-89
2022/05/05 05:35:52;;;;;;;;;;;16.20;46.20;;;;;;5057857;28;20377;-88
2022/05/05 05:38:17;;;;;;;;;;;16.30;46.10;;;;;;5074186;28;19986;-89
2022/05/05 05:40:43;;;;;;;;;;;16.40;46.10;;;;;;5075512;28;19913;-88
2022/05/05 05:43:08;;;;;;;;;;;16.60;45.90;;;;;;5075387;28;19916;-89
2022/05/05 05:45:36;;;;;;;;;;;16.70;45.80;;;;;;5075566;28;19962;-89
2022/05/05 05:48:04;;;;;;;;;;;16.90;45.60;;;;;;5075396;28;19983;-89
2022/05/05 05:50:30;;;;;;;;;;;17.00;45.50;;;;;;5057689;28;19920;-89
2022/05/05 05:52:56;;;;;;;;;;;17.20;45.40;;;;;;5056115;28;19924;-89
2022/05/05 05:55:22;;;;;;;;;;;17.20;45.10;;;;;;5057043;28;19921;-89
2022/05/05 05:57:47;;;;;;;;;;;17.40;45.00;;;;;;5074491;28;19962;-89
2022/05/05 06:00:13;;;;;;;;;;;17.50;44.90;;;;;;5074558;28;19912;-89
2022/05/05 06:05:23;;;;;;;;;;;17.80;44.60;;;;;;5078515;28;20050;-89
2022/05/05 06:07:48;;;;;;;;;;;17.90;44.50;;;;;;5079113;28;19962;-89
2022/05/05 06:10:16;;;;;;;;;;;18.10;44.50;;;;;;5078200;28;19913;-89
2022/05/05 06:12:42;;;;;;;;;;;18.30;44.30;;;;;;5059757;28;20371;-89
2022/05/05 06:15:08;;;;;;;;;;;18.50;44.20;;;;;;5078579;28;19921;-90
2022/05/05 06:17:34;;;;;;;;;;;18.70;44.10;;;;;;5077840;28;20012;-89
2022/05/05 06:19:59;;;;;;;;;;;18.80;43.80;;;;;;5059880;28;19927;-89
2022/05/05 06:22:25;;;;;;;;;;;19.10;43.60;;;;;;5077711;28;19920;-90
2022/05/05 06:24:50;;;;;;;;;;;19.20;43.60;;;;;;5059803;28;19956;-89
2022/05/05 06:27:16;;;;;;;;;;;19.60;43.60;;;;;;5077544;28;20430;-89
2022/05/05 06:29:41;;;;;;;;;;;20.00;43.60;;;;;;5060374;28;19935;-89
2022/05/05 06:32:07;;;;;;;;;;;20.40;43.10;;;;;;5078051;28;19974;-90
2022/05/05 06:34:33;;;;;;;;;;;20.70;42.00;;;;;;5058334;28;19920;-89
2022/05/05 06:36:59;;;;;;;;;;;21.00;41.40;;;;;;5056560;28;19974;-89
2022/05/05 06:39:24;;;;;;;;;;;21.30;41.40;;;;;;5075520;28;20373;-89
2022/05/05 06:41:50;;;;;;;;;;;21.60;40.50;;;;;;5053057;28;19917;-89
2022/05/05 06:44:15;;;;;;;;;;;21.90;40.30;;;;;;5055897;28;19971;-89
2022/05/05 06:46:41;;;;;;;;;;;22.20;40.10;;;;;;5054463;28;19927;-90
2022/05/05 06:49:06;;;;;;;;;;;22.60;39.50;;;;;;5073591;28;19917;-89
2022/05/05 06:51:31;;;;;;;;;;;22.90;38.50;;;;;;5056918;28;19991;-90
2022/05/05 06:53:58;;;;;;;;;;;23.20;37.90;;;;;;5075492;28;19921;-90
2022/05/05 06:56:25;;;;;;;;;;;23.60;37.80;;;;;;5057232;28;20539;-89
2022/05/05 06:58:50;;;;;;;;;;;24.00;37.20;;;;;;5074883;28;19924;-90
2022/05/05 07:06:44;;;;;;;;;;;24.60;35.00;;;;;;5075547;28;19951;-90
2022/05/05 07:11:54;;;;;;;;;;;25.00;35.30;;;;;;5075785;28;20686;-89
2022/05/05 07:14:19;;;;;;;;;;;25.30;34.50;;;;;;5058269;28;19925;-90
2022/05/05 07:16:45;;;;;;;;;;;25.50;33.30;;;;;;5075732;28;19943;-88
2022/05/05 07:19:10;;;;;;;;;;;25.70;33.30;;;;;;5075550;28;20026;-89
2022/05/05 07:21:37;;;;;;;;;;;25.90;33.20;;;;;;5071304;28;19913;-89
2022/05/05 07:24:03;;;;;;;;;;;26.30;33.50;;;;;;5071926;28;19920;-89
2022/05/05 07:26:29;;;;;;;;;;;26.90;33.50;;;;;;5075940;28;19939;-89
2022/05/05 07:28:57;;;;;;;;;;;27.70;32.90;;;;;;5058116;28;19920;-90
2022/05/05 07:31:23;;;;;;;;;;;28.30;31.50;;;;;;5057968;28;19924;-90
2022/05/05 07:33:48;;;;;;;;;;;29.00;30.70;;;;;;5074855;28;19936;-89
2022/05/05 07:36:14;;;;;;;;;;;29.80;29.80;;;;;;5075362;28;19954;-89
2022/05/05 07:38:40;;;;;;;;;;;30.40;28.70;;;;;;5075276;28;20330;-89
2022/05/05 07:41:05;;;;;;;;;;;31.20;28.00;;;;;;5074779;28;19967;-90
2022/05/05 07:43:31;;;;;;;;;;;31.70;26.90;;;;;;5073950;28;19916;-90
2022/05/05 07:45:56;;;;;;;;;;;32.20;25.70;;;;;;5056911;28;20387;-90
2022/05/05 07:48:22;;;;;;;;;;;32.80;24.90;;;;;;5075594;28;19986;-89
2022/05/05 07:50:47;;;;;;;;;;;33.30;24.50;;;;;;5056691;28;19924;-90
2022/05/05 07:53:13;;;;;;;;;;;33.90;23.90;;;;;;5057830;28;19920;-90
2022/05/05 07:55:39;;;;;;;;;;;34.30;23.20;;;;;;5075472;28;19919;-90
2022/05/05 07:58:04;;;;;;;;;;;34.80;22.70;;;;;;5057309;28;19909;-90
2022/05/05 08:00:30;;;;;;;;;;;35.20;21.70;;;;;;5073658;28;19923;-89
2022/05/05 08:02:55;;;;;;;;;;;35.50;21.60;;;;;;5056267;28;20015;-89
2022/05/05 08:05:20;;;;;;;;;;;36.00;21.40;;;;;;5073894;28;19968;-90
2022/05/05 08:07:48;;;;;;;;;;;36.30;20.70;;;;;;5074877;28;19912;-90
2022/05/05 08:10:14;;;;;;;;;;;36.50;20.40;;;;;;5057642;28;19958;-89
2022/05/05 08:12:40;;;;;;;;;;;36.60;19.70;;;;;;5056421;28;19908;-90
2022/05/05 08:15:06;;;;;;;;;;;36.60;19.10;;;;;;5075375;28;19929;-89
2022/05/05 08:17:33;;;;;;;;;;;36.70;19.10;;;;;;5057120;28;19955;-89
2022/05/05 08:19:59;;;;;;;;;;;36.80;18.60;;;;;;5056839;28;19920;-89
2022/05/05 08:22:24;;;;;;;;;;;37.00;18.40;;;;;;5057732;28;19932;-90
2022/05/05 08:30:18;;;;;;;;;;;37.30;17.00;;;;;;5075737;28;20004;-89
2022/05/05 08:32:43;;;;;;;;;;;37.20;16.40;;;;;;5057288;28;20422;-89
2022/05/05 08:35:10;;;;;;;;;;;37.10;16.90;;;;;;5057319;28;19929;-90
2022/05/05 08:37:35;;;;;;;;;;;37.30;17.00;;;;;;5074448;28;19916;-91
2022/05/05 08:40:02;;;;;;;;;;;37.50;17.00;;;;;;5056641;28;19920;-90
2022/05/05 08:42:27;;;;;;;;;;;37.50;16.50;;;;;;5074718;28;19916;-90
2022/05/05 08:44:53;;;;;;;;;;;37.50;16.30;;;;;;5056580;28;19913;-90
2022/05/05 08:47:21;;;;;;;;;;;37.50;16.60;;;;;;5056072;28;19923;-90
2022/05/05 08:49:47;;;;;;;;;;;37.50;16.30;;;;;;5055424;28;19912;-90
2022/05/05 08:52:17;;;;;;;;;;;37.50;16.50;;;;;;5055898;28;19976;-90
2022/05/05 08:54:42;;;;;;;;;;;37.70;16.60;;;;;;5073800;28;19928;-90
2022/05/05 08:57:08;;;;;;;;;;;37.70;16.40;;;;;;5056260;28;20271;-90
2022/05/05 08:59:33;;;;;;;;;;;37.70;15.80;;;;;;5055910;28;19939;-90
2022/05/05 09:01:59;;;;;;;;;;;37.60;15.60;;;;;;5056001;28;19978;-90
2022/05/05 09:04:24;;;;;;;;;;;37.70;15.50;;;;;;5055574;28;20352;-90
2022/05/05 09:06:51;;;;;;;;;;;37.80;15.60;;;;;;5074159;28;20340;-90
2022/05/05 09:09:29;;;;;;;;;;;38.00;15.50;;;;;;5056373;28;19954;-90
2022/05/05 09:12:12;;;;;;;;;;;38.30;15.40;;;;;;5074439;28;19920;-89
2022/05/05 09:14:50;;;;;;;;;;;38.30;14.80;;;;;;5074233;28;20387;-90
2022/05/05 09:17:17;;;;;;;;;;;38.30;14.90;;;;;;5055721;28;19952;-90
2022/05/05 09:19:44;;;;;;;;;;;38.40;14.80;;;;;;5056844;28;20367;-90
2022/05/05 09:22:10;;;;;;;;;;;38.60;15.00;;;;;;5075578;28;19961;-90
2022/05/05 09:24:36;;;;;;;;;;;38.70;15.20;;;;;;5056712;28;19921;-89
2022/05/05 09:27:21;;;;;;;;;;;38.90;15.00;;;;;;5056547;28;19924;-90
2022/05/05 09:29:58;;;;;;;;;;;39.20;14.80;;;;;;5074368;28;20356;-90
2022/05/05 09:32:31;;;;;;;;;;;39.50;14.80;;;;;;5074741;28;19919;-90
2022/05/05 09:34:57;;;;;;;;;;;39.80;14.60;;;;;;5074948;28;20426;-90
2022/05/05 09:37:22;;;;;;;;;;;40.20;14.60;;;;;;5055578;28;19951;-90
2022/05/05 09:39:55;;;;;;;;;;;40.40;14.80;;;;;;5075184;28;19920;-90
2022/05/05 09:42:53;;;;;;;;;;;40.70;14.20;;;;;;5056031;28;19912;-90
2022/05/05 09:45:21;;;;;;;;;;;40.90;14.10;;;;;;5012281;28;19924;-91
2022/05/05 09:47:48;;;;;;;;;;;41.10;13.90;;;;;;5053459;28;20266;-91
2022/05/05 09:50:14;;;;;;;;;;;41.30;13.40;;;;;;5035522;28;19928;-90
2022/05/05 09:58:10;;;;;;;;;;;41.70;13.20;;;;;;5054620;28;19920;-90
2022/05/05 10:00:45;;;;;;;;;;;41.70;12.60;;;;;;5054586;28;20459;-90
2022/05/05 10:05:57;;;;;;;;;;;41.10;11.90;;;;;;5054462;28;19923;-90
2022/05/05 10:08:42;;;;;;;;;;;40.80;12.10;;;;;;5054464;28;19917;-91
2022/05/05 10:11:08;;;;;;;;;;;40.70;12.50;;;;;;5057423;28;19917;-90
2022/05/05 10:13:37;;;;;;;;;;;40.80;12.70;;;;;;5054556;28;20400;-90
2022/05/05 10:16:05;;;;;;;;;;;41.10;12.60;;;;;;5054220;28;20694;-91
2022/05/05 10:18:38;;;;;;;;;;;41.30;12.70;;;;;;5053880;28;20027;-91
2022/05/05 10:21:08;;;;;;;;;;;41.50;12.20;;;;;;5036380;28;19924;-90
2022/05/05 10:23:42;;;;;;;;;;;41.60;12.30;;;;;;5036427;28;19921;-90
2022/05/05 10:26:09;;;;;;;;;;;41.60;11.80;;;;;;5035984;28;19966;-90
2022/05/05 10:28:40;;;;;;;;;;;41.60;12.10;;;;;;5054478;28;19982;-90
2022/05/05 10:31:12;;;;;;;;;;;41.60;12.20;;;;;;5051946;28;19946;-91
2022/05/05 10:34:13;;;;;;;;;;;41.70;12.50;;;;;;5052419;28;20431;-90
2022/05/05 10:36:39;;;;;;;;;;;41.80;12.20;;;;;;5011202;28;19917;-90
2022/05/05 10:39:17;;;;;;;;;;;41.60;11.60;;;;;;5027368;28;20000;-90
2022/05/05 10:41:43;;;;;;;;;;;41.40;11.90;;;;;;5053637;28;19948;-89
2022/05/05 10:44:23;;;;;;;;;;;41.10;11.50;;;;;;5052669;28;19923;-89
2022/05/05 10:46:54;;;;;;;;;;;40.70;11.40;;;;;;5053250;28;19940;-90
2022/05/05 10:49:40;;;;;;;;;;;40.40;11.70;;;;;;5054048;28;19974;-90
2022/05/05 10:52:08;;;;;;;;;;;40.50;12.10;;;;;;5048781;28;19971;-90
2022/05/05 10:54:37;;;;;;;;;;;40.70;11.90;;;;;;5055274;28;19944;-90
2022/05/05 10:57:21;;;;;;;;;;;40.80;11.70;;;;;;5038026;28;20323;-89
2022/05/05 11:00:06;;;;;;;;;;;40.70;11.40;;;;;;5055552;28;20387;-89
2022/05/05 11:02:32;;;;;;;;;;;40.60;11.80;;;;;;5055871;28;19913;-89
2022/05/05 11:05:17;;;;;;;;;;;40.70;12.00;;;;;;5055780;28;19967;-90
2022/05/05 11:07:43;;;;;;;;;;;40.90;12.00;;;;;;5056187;28;20273;-88
2022/05/05 11:10:30;;;;;;;;;;;41.10;12.20;;;;;;5053437;28;20015;-90
2022/05/05 11:12:55;;;;;;;;;;;41.20;11.80;;;;;;5047807;28;19939;-89
2022/05/05 11:23:47;;;;;;;;;;;39.90;12.00;;;;;;5075151;28;19947;-89
2022/05/05 11:26:19;;;;;;;;;;;39.60;12.40;;;;;;5075225;28;19916;-89
2022/05/05 11:28:46;;;;;;;;;;;39.30;12.40;;;;;;5075085;28;19916;-89
2022/05/05 11:31:20;;;;;;;;;;;39.20;12.60;;;;;;5075054;28;19916;-89
2022/05/05 11:33:56;;;;;;;;;;;39.10;12.70;;;;;;5074478;28;19938;-89
2022/05/05 11:36:25;;;;;;;;;;;39.20;12.80;;;;;;5057502;28;20574;-89
2022/05/05 11:38:51;;;;;;;;;;;39.50;12.80;;;;;;5057290;28;19978;-89
2022/05/05 11:41:18;;;;;;;;;;;39.80;12.80;;;;;;5073626;28;19943;-90
2022/05/05 11:46:28;;;;;;;;;;;40.70;12.40;;;;;;5074970;28;19983;-88
2022/05/05 11:48:54;;;;;;;;;;;40.80;12.00;;;;;;5056157;28;19954;-89
2022/05/05 11:51:23;;;;;;;;;;;40.80;12.00;;;;;;5074522;28;19916;-89
2022/05/05 11:53:48;;;;;;;;;;;40.80;11.80;;;;;;5074224;28;20019;-90
2022/05/05 11:56:14;;;;;;;;;;;40.70;11.80;;;;;;5073359;28;20384;-89
2022/05/05 12:01:37;;;;;;;;;;;40.60;11.90;;;;;;5079861;28;19915;-90
2022/05/05 12:04:02;;;;;;;;;;;40.70;11.90;;;;;;5057048;28;20052;-88
2022/05/05 12:06:29;;;;;;;;;;;40.80;11.80;;;;;;5075216;28;19954;-90
2022/05/05 12:08:55;;;;;;;;;;;40.80;11.80;;;;;;5056979;28;19921;-90
2022/05/05 12:11:21;;;;;;;;;;;40.80;11.80;;;;;;5074958;28;19916;-90
2022/05/05 12:13:49;;;;;;;;;;;40.70;11.70;;;;;;5074286;28;19924;-90
2022/05/05 12:16:17;;;;;;;;;;;40.50;11.70;;;;;;5075066;28;19920;-90
2022/05/05 12:18:48;;;;;;;;;;;40.60;11.90;;;;;;5074327;28;19924;-90
2022/05/05 12:21:24;;;;;;;;;;;40.70;12.10;;;;;;5074294;28;19916;-90
2022/05/05 12:24:03;;;;;;;;;;;40.80;12.10;;;;;;5074538;28;20348;-90
2022/05/05 12:26:33;;;;;;;;;;;40.90;12.00;;;;;;5075549;28;19917;-89
2022/05/05 12:29:02;;;;;;;;;;;41.00;11.90;;;;;;5056511;28;19922;-89
2022/05/05 12:31:30;;;;;;;;;;;41.10;11.90;;;;;;5058783;28;20012;-88
2022/05/05 12:33:57;;;;;;;;;;;41.20;11.80;;;;;;5055824;28;19988;-89
2022/05/05 12:36:29;;;;;;;;;;;41.10;11.80;;;;;;5056522;28;19931;-87
2022/05/05 12:39:13;;;;;;;;;;;41.10;11.90;;;;;;5061392;28;19959;-91
2022/05/05 12:41:57;;;;;;;;;;;41.00;11.30;;;;;;5055815;28;19908;-89
2022/05/05 12:44:29;;;;;;;;;;;40.50;11.10;;;;;;5056762;28;19928;-89
2022/05/05 12:46:59;;;;;;;;;;;40.00;11.10;;;;;;5061045;28;19912;-89
2022/05/05 12:49:38;;;;;;;;;;;39.70;11.30;;;;;;5058221;28;19920;-88
2022/05/05 12:52:04;;;;;;;;;;;39.60;11.40;;;;;;5060310;28;20345;-87
2022/05/05 12:59:58;;;;;;;;;;;39.40;11.50;;;;;;5073929;28;19966;-90
2022/05/05 13:02:24;;;;;;;;;;;39.20;11.60;;;;;;5075345;28;19916;-90
2022/05/05 13:04:50;;;;;;;;;;;39.20;11.70;;;;;;5039949;28;19920;-88
2022/05/05 13:07:16;;;;;;;;;;;39.00;11.90;;;;;;5074006;28;20010;-88
2022/05/05 13:09:41;;;;;;;;;;;38.90;12.10;;;;;;5075443;28;20343;-90
2022/05/05 13:12:07;;;;;;;;;;;38.90;12.20;;;;;;5073610;28;19917;-89
2022/05/05 13:14:33;;;;;;;;;;;38.60;12.30;;;;;;5075849;28;19969;-89
2022/05/05 13:16:59;;;;;;;;;;;37.70;12.70;;;;;;5055233;28;19917;-89
2022/05/05 13:19:25;;;;;;;;;;;36.80;13.20;;;;;;5054930;28;20536;-89
2022/05/05 13:21:51;;;;;;;;;;;36.40;13.40;;;;;;5072681;28;20371;-90
2022/05/05 13:24:16;;;;;;;;;;;36.40;13.40;;;;;;5055556;28;19916;-90
2022/05/05 13:26:43;;;;;;;;;;;36.70;13.30;;;;;;5072974;28;19917;-89
2022/05/05 13:29:09;;;;;;;;;;;36.90;13.40;;;;;;5054597;28;20268;-88
2022/05/05 13:31:35;;;;;;;;;;;37.30;13.20;;;;;;5055311;28;20615;-89
2022/05/05 13:34:00;;;;;;;;;;;37.50;12.90;;;;;;5056177;28;19975;-89
2022/05/05 13:36:26;;;;;;;;;;;37.70;12.90;;;;;;5055107;28;19938;-89
2022/05/05 13:38:52;;;;;;;;;;;37.90;12.70;;;;;;5074241;28;19982;-88
2022/05/05 13:41:18;;;;;;;;;;;38.00;12.70;;;;;;5057416;28;19913;-88
2022/05/05 13:43:43;;;;;;;;;;;38.30;12.70;;;;;;5072778;28;19920;-88
2022/05/05 13:46:09;;;;;;;;;;;38.40;12.80;;;;;;5054828;28;19908;-89
2022/05/05 13:48:35;;;;;;;;;;;38.50;12.80;;;;;;5054757;28;19940;-89
2022/05/05 13:51:03;;;;;;;;;;;38.70;12.70;;;;;;5072795;28;20007;-89
2022/05/05 13:53:29;;;;;;;;;;;38.40;12.40;;;;;;5053757;28;20395;-89
2022/05/05 13:55:55;;;;;;;;;;;37.10;12.90;;;;;;5054505;28;19912;-88
2022/05/05 13:58:20;;;;;;;;;;;36.00;13.60;;;;;;5037056;28;19923;-88
2022/05/05 14:00:46;;;;;;;;;;;35.20;13.80;;;;;;5070050;28;19916;-89
2022/05/05 14:03:12;;;;;;;;;;;34.40;14.30;;;;;;5069587;28;20376;-89
2022/05/05 14:05:37;;;;;;;;;;;33.70;14.90;;;;;;5054132;28;19917;-89
2022/05/05 14:13:31;;;;;;;;;;;32.20;16.20;;;;;;5072255;28;19974;-88
2022/05/05 14:15:57;;;;;;;;;;;31.70;16.50;;;;;;5070323;28;19908;-89
2022/05/05 14:18:24;;;;;;;;;;;31.40;16.70;;;;;;5071247;28;19970;-88
2022/05/05 14:20:49;;;;;;;;;;;31.20;16.90;;;;;;5071645;28;19916;-89
2022/05/05 14:23:14;;;;;;;;;;;31.20;17.00;;;;;;5053903;28;19916;-89
2022/05/05 14:25:40;;;;;;;;;;;31.00;17.10;;;;;;5056818;28;19919;-89
2022/05/05 14:28:09;;;;;;;;;;;30.80;17.00;;;;;;5057231;28;19923;-89
2022/05/05 14:30:34;;;;;;;;;;;30.70;17.30;;;;;;5075914;28;19951;-88
2022/05/05 14:33:00;;;;;;;;;;;30.50;17.20;;;;;;5075165;28;19955;-87
2022/05/05 14:35:25;;;;;;;;;;;30.50;17.30;;;;;;5075481;28;19974;-89
2022/05/05 14:37:51;;;;;;;;;;;30.50;17.30;;;;;;5074755;28;19978;-88
2022/05/05 14:40:16;;;;;;;;;;;30.40;17.50;;;;;;5074045;28;20019;-89
2022/05/05 14:42:42;;;;;;;;;;;30.40;17.60;;;;;;5074785;28;19916;-89
2022/05/05 14:45:08;;;;;;;;;;;30.40;17.80;;;;;;5075125;28;19920;-89
2022/05/05 14:47:34;;;;;;;;;;;30.40;18.00;;;;;;5056934;28;19919;-89
2022/05/05 14:49:59;;;;;;;;;;;30.40;18.20;;;;;;5056936;28;19921;-88
2022/05/05 14:52:25;;;;;;;;;;;30.40;18.20;;;;;;5074725;28;20402;-88
2022/05/05 14:54:50;;;;;;;;;;;30.40;18.20;;;;;;5075219;28;19928;-88
2022/05/05 14:57:18;;;;;;;;;;;30.40;18.20;;;;;;5074741;28;19912;-89
2022/05/05 14:59:43;;;;;;;;;;;30.30;18.20;;;;;;5057551;28;19974;-89
2022/05/05 15:02:09;;;;;;;;;;;30.20;18.40;;;;;;5074723;28;20395;-88
2022/05/05 15:04:35;;;;;;;;;;;30.20;18.60;;;;;;5057040;28;19924;-89
2022/05/05 15:07:01;;;;;;;;;;;30.30;18.70;;;;;;5074107;28;20043;-89
2022/05/05 15:09:27;;;;;;;;;;;30.30;18.50;;;;;;5074809;28;19925;-89
2022/05/05 15:11:52;;;;;;;;;;;30.20;18.40;;;;;;5056559;28;19913;-89
2022/05/05 15:14:18;;;;;;;;;;;30.20;18.50;;;;;;5074194;28;20007;-88
2022/05/05 15:16:43;;;;;;;;;;;30.20;18.50;;;;;;5056317;28;20060;-88
2022/05/05 15:19:10;;;;;;;;;;;30.20;18.50;;;;;;5073281;28;19916;-88